Time;durP1;ratioP1;P1;durP2;ratioP2;P2;SDS_P1;SDS_P2;PMS_P1;PMS_P2;Temp;Humidity;BMP_temperature;BMP_pressure;BME280_temperature;BME280_humidity;BME280_pressure;Samples;Min_cycle;Max_cycle;Signal;HPM_P1;HPM_P2
2022/11/01 00:00:36;;;;;;;11.37;1.87;;;;;;;;;;5051263;28;20291;-76
2022/11/01 00:03:03;;;;;;;12.70;1.93;;;;;;;;;;5050790;28;20306;-75
2022/11/01 00:05:32;;;;;;;13.83;2.00;;;;;;;;;;5051497;28;20199;-75
2022/11/01 00:07:59;;;;;;;13.70;2.10;;;;;;;;;;5051707;28;20235;-75
2022/11/01 00:10:26;;;;;;;9.43;1.73;;;;;;;;;;5051106;28;20287;-75
2022/11/01 00:12:54;;;;;;;10.37;1.50;;;;;;;;;;5051264;28;20294;-75
2022/11/01 00:15:22;;;;;;;11.40;1.90;;;;;;;;;;5051519;28;20652;-75
2022/11/01 00:17:52;;;;;;;10.43;2.10;;;;;;;;;;5051749;28;20282;-75
2022/11/01 00:20:19;;;;;;;11.50;2.00;;;;;;;;;;5049631;28;20702;-75
2022/11/01 00:22:50;;;;;;;14.23;1.80;;;;;;;;;;5051571;28;20238;-75
2022/11/01 00:25:18;;;;;;;10.27;1.93;;;;;;;;;;5050851;28;20200;-76
2022/11/01 00:27:45;;;;;;;12.87;2.07;;;;;;;;;;5051062;28;20202;-75
2022/11/01 00:30:13;;;;;;;14.67;2.40;;;;;;;;;;5051230;28;20311;-76
2022/11/01 00:32:41;;;;;;;10.13;1.77;;;;;;;;;;5051521;28;20299;-75
2022/11/01 00:35:08;;;;;;;12.13;2.13;;;;;;;;;;5051727;28;20200;-76
2022/11/01 00:37:36;;;;;;;10.57;1.80;;;;;;;;;;5050558;28;20639;-75
2022/11/01 00:40:05;;;;;;;9.80;2.40;;;;;;;;;;5051144;28;20246;-75
2022/11/01 00:42:32;;;;;;;13.20;2.03;;;;;;;;;;5050598;28;20242;-75
2022/11/01 00:44:59;;;;;;;9.67;1.90;;;;;;;;;;5051156;28;20230;-75
2022/11/01 00:47:26;;;;;;;12.20;2.30;;;;;;;;;;5050678;28;20238;-75
2022/11/01 00:49:53;;;;;;;10.20;2.03;;;;;;;;;;5051634;28;20286;-75
2022/11/01 00:52:23;;;;;;;15.20;2.30;;;;;;;;;;5052219;28;20699;-76
2022/11/01 00:54:50;;;;;;;14.40;2.30;;;;;;;;;;5054852;28;20693;-75
2022/11/01 00:57:18;;;;;;;14.27;2.40;;;;;;;;;;5054877;28;20239;-75
2022/11/01 00:59:46;;;;;;;15.43;2.30;;;;;;;;;;5054796;28;20253;-75
2022/11/01 01:02:13;;;;;;;14.03;2.10;;;;;;;;;;5054557;28;20282;-76
2022/11/01 01:04:42;;;;;;;14.03;2.13;;;;;;;;;;5053204;28;20255;-75
2022/11/01 01:07:09;;;;;;;17.17;2.17;;;;;;;;;;5054053;28;20555;-76
2022/11/01 01:09:36;;;;;;;16.67;2.20;;;;;;;;;;5054272;28;20204;-76
2022/11/01 01:12:04;;;;;;;16.83;2.53;;;;;;;;;;5054846;28;20227;-75
2022/11/01 01:14:33;;;;;;;16.30;2.70;;;;;;;;;;5054335;28;20196;-75
2022/11/01 01:17:00;;;;;;;13.23;2.40;;;;;;;;;;5053690;28;20250;-75
2022/11/01 01:19:29;;;;;;;12.23;2.57;;;;;;;;;;5054504;28;20239;-75
2022/11/01 01:21:56;;;;;;;16.93;2.50;;;;;;;;;;5051854;28;20278;-76
2022/11/01 01:24:23;;;;;;;13.47;2.37;;;;;;;;;;5054075;28;20310;-75
2022/11/01 01:26:51;;;;;;;14.07;2.47;;;;;;;;;;5054157;28;20922;-75
2022/11/01 01:29:18;;;;;;;16.23;2.53;;;;;;;;;;5053695;28;20224;-75
2022/11/01 01:31:46;;;;;;;11.77;2.27;;;;;;;;;;5054629;28;20367;-75
2022/11/01 01:34:14;;;;;;;13.60;2.70;;;;;;;;;;5054231;28;20291;-75
2022/11/01 01:36:41;;;;;;;17.60;3.00;;;;;;;;;;5059044;28;20294;-75
2022/11/01 01:39:08;;;;;;;14.20;2.53;;;;;;;;;;5055583;28;20255;-75
2022/11/01 01:44:39;;;;;;;20.90;2.83;;;;;;;;;;5053570;28;20254;-75
2022/11/01 01:47:08;;;;;;;14.60;2.30;;;;;;;;;;5054062;28;20295;-75
2022/11/01 01:49:35;;;;;;;17.67;2.40;;;;;;;;;;5053615;28;20292;-75
2022/11/01 01:52:03;;;;;;;17.93;2.87;;;;;;;;;;5052790;28;20291;-75
2022/11/01 01:54:30;;;;;;;15.97;2.30;;;;;;;;;;5053746;28;20671;-75
2022/11/01 01:56:58;;;;;;;15.60;2.40;;;;;;;;;;5054010;28;20318;-75
2022/11/01 01:59:26;;;;;;;13.93;2.37;;;;;;;;;;5054131;28;20235;-75
2022/11/01 02:01:53;;;;;;;21.13;2.73;;;;;;;;;;5053491;28;20246;-75
2022/11/01 02:04:24;;;;;;;19.70;2.67;;;;;;;;;;5052461;28;20315;-77
2022/11/01 02:06:52;;;;;;;15.17;2.43;;;;;;;;;;5053516;28;20231;-75
2022/11/01 02:09:19;;;;;;;17.87;2.87;;;;;;;;;;5053609;28;20231;-75
2022/11/01 02:11:47;;;;;;;13.27;2.50;;;;;;;;;;5053491;28;20295;-75
2022/11/01 02:14:14;;;;;;;13.97;2.03;;;;;;;;;;5053664;28;20278;-75
2022/11/01 02:16:53;;;;;;;16.43;2.90;;;;;;;;;;5053654;28;20295;-75
2022/11/01 02:19:38;;;;;;;13.97;2.17;;;;;;;;;;5053244;28;20685;-75
2022/11/01 02:22:08;;;;;;;13.83;2.17;;;;;;;;;;5052671;28;20282;-75
2022/11/01 02:24:43;;;;;;;14.47;2.07;;;;;;;;;;5052958;28;20777;-75
2022/11/01 02:27:24;;;;;;;15.73;2.20;;;;;;;;;;5053641;28;20234;-75
2022/11/01 02:30:12;;;;;;;14.57;2.23;;;;;;;;;;5053018;28;20306;-75
2022/11/01 02:32:45;;;;;;;11.17;2.27;;;;;;;;;;5053366;28;20303;-75
2022/11/01 02:35:15;;;;;;;16.00;2.20;;;;;;;;;;5052407;28;20652;-76
2022/11/01 02:37:46;;;;;;;13.53;2.30;;;;;;;;;;5067205;28;20322;-75
2022/11/01 02:40:16;;;;;;;19.37;2.43;;;;;;;;;;5059851;28;20242;-75
2022/11/01 02:42:44;;;;;;;17.67;2.77;;;;;;;;;;5052687;28;20239;-75
2022/11/01 02:45:26;;;;;;;16.10;2.10;;;;;;;;;;5052469;28;20315;-76
2022/11/01 02:47:55;;;;;;;13.17;2.57;;;;;;;;;;5052764;28;20683;-76
2022/11/01 02:50:22;;;;;;;16.50;2.30;;;;;;;;;;5052836;28;20636;-76
2022/11/01 02:52:50;;;;;;;18.27;2.17;;;;;;;;;;5052822;28;20291;-75
2022/11/01 02:55:28;;;;;;;17.40;2.50;;;;;;;;;;5052652;28;20313;-75
2022/11/01 02:57:57;;;;;;;10.90;2.40;;;;;;;;;;5052130;28;20210;-75
2022/11/01 03:00:25;;;;;;;16.27;2.87;;;;;;;;;;5052620;28;20224;-75
2022/11/01 03:02:55;;;;;;;16.93;2.60;;;;;;;;;;5052736;28;20535;-75
2022/11/01 03:05:27;;;;;;;13.57;2.30;;;;;;;;;;5052355;28;20230;-75
2022/11/01 03:07:57;;;;;;;12.90;2.50;;;;;;;;;;5052151;28;20320;-75
2022/11/01 03:10:28;;;;;;;19.57;2.73;;;;;;;;;;5052838;28;20276;-75
2022/11/01 03:12:59;;;;;;;17.73;2.60;;;;;;;;;;5052960;28;20282;-76
2022/11/01 03:15:28;;;;;;;14.17;2.13;;;;;;;;;;5052365;28;20261;-75
2022/11/01 03:18:00;;;;;;;13.50;2.10;;;;;;;;;;5052373;28;20541;-75
2022/11/01 03:20:46;;;;;;;17.17;2.87;;;;;;;;;;5051676;28;20711;-76
2022/11/01 03:23:13;;;;;;;13.17;2.73;;;;;;;;;;5052378;28;20199;-75
2022/11/01 03:25:43;;;;;;;16.33;2.30;;;;;;;;;;5051731;28;20302;-75
2022/11/01 03:28:13;;;;;;;18.77;2.47;;;;;;;;;;5052067;28;20199;-75
2022/11/01 03:30:43;;;;;;;14.03;2.30;;;;;;;;;;5051939;28;20321;-75
2022/11/01 03:33:11;;;;;;;19.00;2.33;;;;;;;;;;5051791;28;20218;-75
2022/11/01 03:35:41;;;;;;;14.63;2.20;;;;;;;;;;5052217;28;20228;-74
2022/11/01 03:38:10;;;;;;;14.83;2.03;;;;;;;;;;5063340;28;20319;-75
2022/11/01 03:40:38;;;;;;;14.63;2.07;;;;;;;;;;5059718;28;20235;-76
2022/11/01 03:43:07;;;;;;;16.47;2.63;;;;;;;;;;5051694;28;20292;-74
2022/11/01 03:45:36;;;;;;;16.07;2.40;;;;;;;;;;5052016;28;20241;-75
2022/11/01 03:48:04;;;;;;;14.90;2.80;;;;;;;;;;5051960;28;20292;-75
2022/11/01 03:50:31;;;;;;;13.93;1.97;;;;;;;;;;5052445;28;20234;-75
2022/11/01 03:53:03;;;;;;;11.53;2.10;;;;;;;;;;5052030;28;20280;-74
2022/11/01 03:55:30;;;;;;;17.27;2.77;;;;;;;;;;5052149;28;20234;-75
2022/11/01 03:57:58;;;;;;;12.67;2.20;;;;;;;;;;5051373;28;20587;-77
2022/11/01 04:00:28;;;;;;;16.27;2.20;;;;;;;;;;5051567;28;20242;-74
2022/11/01 04:02:56;;;;;;;17.33;2.07;;;;;;;;;;5042208;28;20242;-76
2022/11/01 04:05:23;;;;;;;15.70;2.10;;;;;;;;;;5045468;28;20271;-76
2022/11/01 04:07:51;;;;;;;17.03;2.60;;;;;;;;;;5052036;28;20238;-77
2022/11/01 04:10:20;;;;;;;13.13;2.30;;;;;;;;;;5052119;28;20196;-76
2022/11/01 04:12:49;;;;;;;13.63;2.20;;;;;;;;;;5051847;28;20744;-76
2022/11/01 04:20:47;;;;;;;15.40;2.40;;;;;;;;;;5050410;28;20249;-76
2022/11/01 04:23:15;;;;;;;17.60;2.23;;;;;;;;;;5051340;28;20242;-76
2022/11/01 04:25:45;;;;;;;9.80;1.90;;;;;;;;;;5051246;28;20255;-76
2022/11/01 04:28:12;;;;;;;15.43;2.00;;;;;;;;;;5054504;28;20199;-76
2022/11/01 04:30:39;;;;;;;14.73;2.30;;;;;;;;;;5055624;28;20290;-76
2022/11/01 04:33:06;;;;;;;13.13;2.53;;;;;;;;;;5054895;28;20230;-76
2022/11/01 04:35:34;;;;;;;15.23;2.00;;;;;;;;;;5054980;28;20273;-77
2022/11/01 04:38:02;;;;;;;15.77;2.63;;;;;;;;;;5065438;28;20266;-77
2022/11/01 04:40:29;;;;;;;13.90;2.03;;;;;;;;;;5073099;28;20210;-76
2022/11/01 04:42:58;;;;;;;14.13;2.20;;;;;;;;;;5055186;28;20238;-76
2022/11/01 04:45:25;;;;;;;12.20;1.90;;;;;;;;;;5054927;28;20803;-76
2022/11/01 04:48:02;;;;;;;20.97;2.37;;;;;;;;;;5054828;28;20203;-76
2022/11/01 04:50:30;;;;;;;17.83;2.87;;;;;;;;;;5054782;28;20203;-76
2022/11/01 04:52:58;;;;;;;15.33;2.00;;;;;;;;;;5055408;28;20291;-76
2022/11/01 04:55:25;;;;;;;12.57;2.13;;;;;;;;;;5055264;28;20590;-76
2022/11/01 04:57:53;;;;;;;11.77;2.40;;;;;;;;;;5054656;28;20288;-76
2022/11/01 05:00:22;;;;;;;17.73;2.57;;;;;;;;;;5054899;28;20555;-76
2022/11/01 05:02:50;;;;;;;17.43;2.00;;;;;;;;;;5053709;28;20302;-76
2022/11/01 05:05:18;;;;;;;12.93;2.20;;;;;;;;;;5055135;28;20301;-76
2022/11/01 05:07:45;;;;;;;10.97;1.80;;;;;;;;;;5054747;28;20211;-76
2022/11/01 05:10:13;;;;;;;10.83;2.03;;;;;;;;;;5055339;28;20279;-76
2022/11/01 05:12:40;;;;;;;14.87;1.90;;;;;;;;;;5054780;28;20231;-76
2022/11/01 05:15:08;;;;;;;14.27;2.00;;;;;;;;;;5054271;28;20279;-76
2022/11/01 05:17:42;;;;;;;14.07;2.47;;;;;;;;;;5055224;28;20299;-76
2022/11/01 05:20:10;;;;;;;17.67;2.27;;;;;;;;;;5054492;28;20222;-76
2022/11/01 05:22:37;;;;;;;14.70;2.30;;;;;;;;;;5034838;28;20196;-76
2022/11/01 05:25:08;;;;;;;16.37;2.00;;;;;;;;;;5040370;28;20303;-76
2022/11/01 05:27:35;;;;;;;9.53;1.70;;;;;;;;;;5054571;28;20239;-75
2022/11/01 05:30:02;;;;;;;16.40;2.40;;;;;;;;;;5054100;28;20779;-76
2022/11/01 05:32:30;;;;;;;9.53;2.13;;;;;;;;;;5054788;28;20234;-76
2022/11/01 05:34:59;;;;;;;11.63;1.87;;;;;;;;;;5054421;28;20231;-77
2022/11/01 05:37:26;;;;;;;17.03;2.20;;;;;;;;;;5053777;28;20239;-75
2022/11/01 05:39:53;;;;;;;17.20;2.60;;;;;;;;;;5053315;28;20207;-76
2022/11/01 05:42:20;;;;;;;12.33;2.13;;;;;;;;;;5053843;28;20286;-75
2022/11/01 05:44:48;;;;;;;17.03;2.50;;;;;;;;;;5054113;28;20247;-76
2022/11/01 05:47:15;;;;;;;15.13;2.00;;;;;;;;;;5053552;28;20239;-76
2022/11/01 05:49:42;;;;;;;11.23;2.13;;;;;;;;;;5054145;28;20719;-76
2022/11/01 05:52:11;;;;;;;16.77;2.40;;;;;;;;;;5052810;28;20290;-76
2022/11/01 05:54:38;;;;;;;11.20;2.30;;;;;;;;;;5042732;28;20278;-76
2022/11/01 05:57:05;;;;;;;12.90;1.97;;;;;;;;;;5053783;28;20206;-76
2022/11/01 05:59:33;;;;;;;12.73;2.40;;;;;;;;;;5054213;28;20671;-76
2022/11/01 06:02:00;;;;;;;14.13;1.90;;;;;;;;;;5052939;28;20204;-75
2022/11/01 06:04:27;;;;;;;13.03;1.73;;;;;;;;;;5052747;28;20630;-75
2022/11/01 06:06:54;;;;;;;12.87;2.00;;;;;;;;;;5053555;28;20235;-76
2022/11/01 06:09:23;;;;;;;14.87;1.97;;;;;;;;;;5052692;28;20242;-75
2022/11/01 06:11:50;;;;;;;12.07;2.37;;;;;;;;;;5053717;28;20280;-75
2022/11/01 06:14:17;;;;;;;12.13;2.23;;;;;;;;;;5053597;28;20228;-75
2022/11/01 06:16:45;;;;;;;15.90;2.63;;;;;;;;;;5053745;28;20235;-74
2022/11/01 06:19:12;;;;;;;15.80;1.93;;;;;;;;;;5053579;28;20231;-75
2022/11/01 06:21:39;;;;;;;14.87;2.17;;;;;;;;;;5053364;28;20695;-75
2022/11/01 06:24:07;;;;;;;15.37;2.27;;;;;;;;;;5052759;28;20596;-75
2022/11/01 06:26:35;;;;;;;13.17;2.10;;;;;;;;;;5053204;28;20580;-75
2022/11/01 06:29:03;;;;;;;14.47;2.13;;;;;;;;;;5053338;28;20307;-76
2022/11/01 06:31:31;;;;;;;13.50;2.07;;;;;;;;;;5053790;28;20687;-76
2022/11/01 06:33:58;;;;;;;19.80;2.27;;;;;;;;;;5052893;28;20250;-76
2022/11/01 06:36:25;;;;;;;11.60;1.87;;;;;;;;;;5053582;28;20253;-75
2022/11/01 06:38:52;;;;;;;12.60;2.00;;;;;;;;;;5052926;28;20810;-75
2022/11/01 06:41:19;;;;;;;9.60;2.20;;;;;;;;;;5052122;28;20290;-75
2022/11/01 06:43:49;;;;;;;15.93;2.27;;;;;;;;;;5053529;28;20291;-76
2022/11/01 06:46:17;;;;;;;22.07;2.40;;;;;;;;;;5053318;28;20314;-74
2022/11/01 06:48:44;;;;;;;13.03;2.13;;;;;;;;;;5053227;28;20227;-75
2022/11/01 06:51:11;;;;;;;14.93;2.53;;;;;;;;;;5051891;28;20286;-75
2022/11/01 06:53:40;;;;;;;12.13;1.90;;;;;;;;;;5053214;28;20311;-75
2022/11/01 06:56:08;;;;;;;14.67;2.57;;;;;;;;;;5052240;28;20199;-76
2022/11/01 06:58:35;;;;;;;15.70;2.10;;;;;;;;;;5052386;28;20202;-76
2022/11/01 07:01:04;;;;;;;20.73;2.60;;;;;;;;;;5052846;28;20232;-76
2022/11/01 07:03:31;;;;;;;15.50;1.90;;;;;;;;;;5052117;28;20291;-75
2022/11/01 07:06:00;;;;;;;17.97;2.97;;;;;;;;;;5052499;28;20322;-76
2022/11/01 07:08:27;;;;;;;11.93;2.10;;;;;;;;;;5044999;28;20227;-76
2022/11/01 07:10:55;;;;;;;10.40;2.20;;;;;;;;;;5052697;28;20294;-75
2022/11/01 07:13:22;;;;;;;12.33;2.27;;;;;;;;;;5050885;28;20253;-76
2022/11/01 07:15:49;;;;;;;14.27;2.30;;;;;;;;;;5051932;28;20242;-76
2022/11/01 07:18:18;;;;;;;12.10;1.90;;;;;;;;;;5051864;28;20280;-76
2022/11/01 07:20:45;;;;;;;16.13;2.47;;;;;;;;;;5051718;28;20224;-75
2022/11/01 07:23:13;;;;;;;14.77;2.47;;;;;;;;;;5051836;28;20349;-76
2022/11/01 07:25:41;;;;;;;19.03;2.33;;;;;;;;;;5052333;28;20265;-76
2022/11/01 07:28:08;;;;;;;11.57;2.03;;;;;;;;;;5052563;28;20318;-76
2022/11/01 07:30:35;;;;;;;16.03;2.30;;;;;;;;;;5051958;28;20255;-76
2022/11/01 07:33:04;;;;;;;13.40;1.93;;;;;;;;;;5052564;28;20203;-76
2022/11/01 07:35:33;;;;;;;12.60;2.20;;;;;;;;;;5052332;28;20231;-76
2022/11/01 07:38:00;;;;;;;12.20;2.43;;;;;;;;;;5051573;28;20396;-76
2022/11/01 07:40:28;;;;;;;13.93;2.27;;;;;;;;;;5062669;28;20207;-76
2022/11/01 07:42:56;;;;;;;11.93;2.63;;;;;;;;;;5051859;28;20235;-76
2022/11/01 07:45:24;;;;;;;7.37;1.80;;;;;;;;;;5051740;28;20223;-75
2022/11/01 07:47:51;;;;;;;12.57;2.00;;;;;;;;;;5051830;28;20227;-76
2022/11/01 07:50:19;;;;;;;14.87;2.40;;;;;;;;;;5052381;28;20286;-76
2022/11/01 07:52:48;;;;;;;11.93;2.07;;;;;;;;;;5051617;28;20726;-76
2022/11/01 07:55:15;;;;;;;14.27;2.43;;;;;;;;;;5052184;28;20246;-76
2022/11/01 07:57:42;;;;;;;10.50;2.13;;;;;;;;;;5051550;28;20287;-77
2022/11/01 08:00:10;;;;;;;9.45;2.28;;;;;;;;;;5051298;28;20748;-77
2022/11/01 08:02:38;;;;;;;10.25;2.55;;;;;;;;;;5053215;28;20200;-76
2022/11/01 08:05:05;;;;;;;11.05;1.80;;;;;;;;;;5055757;28;20242;-77
2022/11/01 08:07:32;;;;;;;13.20;2.88;;;;;;;;;;5048222;28;20231;-83
2022/11/01 08:10:10;;;;;;;9.55;1.95;;;;;;;;;;5054475;28;20242;-85
2022/11/01 08:12:38;;;;;;;10.68;2.10;;;;;;;;;;5054919;28;20237;-83
2022/11/01 08:15:05;;;;;;;16.10;2.65;;;;;;;;;;5045835;28;20752;-84
2022/11/01 08:17:34;;;;;;;14.05;2.60;;;;;;;;;;5046035;28;20286;-84
2022/11/01 08:20:01;;;;;;;10.68;2.25;;;;;;;;;;5056172;28;20341;-84
2022/11/01 08:22:28;;;;;;;11.65;1.92;;;;;;;;;;5054880;28;20282;-84
2022/11/01 08:24:55;;;;;;;10.60;2.20;;;;;;;;;;5055686;28;20726;-83
2022/11/01 08:27:24;;;;;;;12.43;2.40;;;;;;;;;;5055565;28;20722;-84
2022/11/01 08:29:52;;;;;;;10.98;2.00;;;;;;;;;;5054741;28;20251;-84
2022/11/01 08:32:21;;;;;;;13.10;2.20;;;;;;;;;;5054861;28;20282;-82
2022/11/01 08:34:48;;;;;;;14.40;2.67;;;;;;;;;;5055487;28;20580;-84
2022/11/01 08:37:18;;;;;;;11.73;2.60;;;;;;;;;;5054742;28;20230;-82
2022/11/01 08:39:47;;;;;;;11.65;2.78;;;;;;;;;;5055528;28;20314;-83
2022/11/01 08:42:17;;;;;;;7.93;2.10;;;;;;;;;;5055828;28;20617;-82
2022/11/01 08:44:49;;;;;;;9.13;2.15;;;;;;;;;;5055011;28;20200;-82
2022/11/01 08:47:19;;;;;;;10.95;2.10;;;;;;;;;;5055298;28;20306;-82
2022/11/01 08:49:48;;;;;;;10.13;2.03;;;;;;;;;;5054524;28;20282;-83
2022/11/01 08:52:16;;;;;;;12.60;1.95;;;;;;;;;;5055584;28;20240;-83
2022/11/01 08:54:43;;;;;;;11.45;2.22;;;;;;;;;;5054385;28;20698;-84
2022/11/01 08:57:10;;;;;;;12.65;2.10;;;;;;;;;;5055323;28;20715;-83
2022/11/01 08:59:37;;;;;;;9.55;2.03;;;;;;;;;;5054864;28;20667;-83
2022/11/01 09:02:06;;;;;;;11.13;2.28;;;;;;;;;;5055519;28;20239;-85
2022/11/01 09:04:33;;;;;;;11.25;2.20;;;;;;;;;;5053887;28;20304;-84
2022/11/01 09:07:00;;;;;;;9.95;2.50;;;;;;;;;;5052773;28;20310;-80
2022/11/01 09:09:28;;;;;;;11.55;2.33;;;;;;;;;;5055333;28;20278;-83
2022/11/01 09:11:55;;;;;;;9.05;2.22;;;;;;;;;;5053144;28;20681;-81
2022/11/01 09:14:23;;;;;;;11.60;2.33;;;;;;;;;;5052908;28;20228;-82
2022/11/01 09:16:51;;;;;;;9.57;2.13;;;;;;;;;;5052215;28;20575;-83
2022/11/01 09:19:19;;;;;;;12.73;2.22;;;;;;;;;;5052649;28;20245;-84
2022/11/01 09:21:47;;;;;;;9.13;2.03;;;;;;;;;;5053661;28;20282;-83
2022/11/01 09:24:15;;;;;;;14.18;2.30;;;;;;;;;;5053717;28;20196;-86
2022/11/01 09:26:43;;;;;;;12.00;1.88;;;;;;;;;;5052564;28;20280;-87
2022/11/01 09:29:10;;;;;;;12.48;2.13;;;;;;;;;;5052783;28;20781;-86
2022/11/01 09:31:38;;;;;;;14.00;2.55;;;;;;;;;;5052935;28;20287;-87
2022/11/01 09:34:05;;;;;;;12.93;2.40;;;;;;;;;;5053390;28;20230;-84
2022/11/01 09:36:34;;;;;;;12.40;2.30;;;;;;;;;;5053407;28;20552;-87
2022/11/01 09:39:01;;;;;;;12.60;2.08;;;;;;;;;;5050285;28;20258;-87
2022/11/01 09:41:33;;;;;;;12.60;2.20;;;;;;;;;;5053146;28;20227;-87
2022/11/01 09:44:02;;;;;;;10.02;1.75;;;;;;;;;;5054682;28;20299;-87
2022/11/01 09:46:31;;;;;;;11.40;2.45;;;;;;;;;;5054072;28;20251;-86
2022/11/01 09:49:00;;;;;;;12.68;2.30;;;;;;;;;;5053364;28;20272;-86
2022/11/01 09:51:28;;;;;;;12.43;2.42;;;;;;;;;;5053758;28;20548;-84
2022/11/01 09:53:59;;;;;;;11.07;2.35;;;;;;;;;;5053949;28;20668;-85
2022/11/01 09:56:29;;;;;;;10.32;2.47;;;;;;;;;;5050883;28;20207;-85
2022/11/01 09:59:02;;;;;;;10.05;1.80;;;;;;;;;;5054192;28;20254;-86
2022/11/01 10:01:38;;;;;;;8.50;2.10;;;;;;;;;;5054010;28;20238;-84
2022/11/01 10:04:16;;;;;;;12.63;2.53;;;;;;;;;;5053335;28;20226;-84
2022/11/01 10:06:46;;;;;;;10.32;2.08;;;;;;;;;;5049629;28;20302;-85
2022/11/01 10:09:22;;;;;;;11.23;3.00;;;;;;;;;;5054967;28;20246;-84
2022/11/01 10:11:57;;;;;;;13.98;1.92;;;;;;;;;;5057030;28;20227;-85
2022/11/01 10:14:31;;;;;;;9.75;1.98;;;;;;;;;;5053231;28;20242;-85
2022/11/01 10:17:04;;;;;;;14.07;2.25;;;;;;;;;;5053886;28;20278;-85
2022/11/01 10:19:34;;;;;;;12.63;2.58;;;;;;;;;;5053916;28;20231;-86
2022/11/01 10:22:04;;;;;;;10.13;2.45;;;;;;;;;;5052925;28;20675;-85
2022/11/01 10:24:37;;;;;;;9.52;1.92;;;;;;;;;;5052581;28;20640;-82
2022/11/01 10:27:07;;;;;;;9.45;1.85;;;;;;;;;;5053395;28;20235;-81
2022/11/01 10:29:41;;;;;;;9.80;1.80;;;;;;;;;;5051965;28;20311;-83
2022/11/01 10:32:16;;;;;;;11.63;2.08;;;;;;;;;;5051871;28;20286;-83
2022/11/01 10:34:43;;;;;;;10.13;1.65;;;;;;;;;;5052465;28;20202;-83
2022/11/01 10:37:15;;;;;;;9.80;1.75;;;;;;;;;;5051217;28;20287;-82
2022/11/01 10:39:47;;;;;;;11.52;2.08;;;;;;;;;;5051567;28;20278;-83
2022/11/01 10:42:16;;;;;;;11.70;1.88;;;;;;;;;;5052072;28;20235;-84
2022/11/01 10:44:45;;;;;;;16.33;2.45;;;;;;;;;;5034281;28;20287;-82
2022/11/01 10:47:17;;;;;;;13.98;2.10;;;;;;;;;;5044229;28;20316;-82
2022/11/01 10:49:46;;;;;;;9.70;2.25;;;;;;;;;;5046182;28;20574;-82
2022/11/01 10:52:15;;;;;;;9.57;2.05;;;;;;;;;;5052359;28;20294;-83
2022/11/01 10:54:44;;;;;;;9.85;2.08;;;;;;;;;;5052728;28;20203;-84
2022/11/01 10:57:15;;;;;;;11.20;2.53;;;;;;;;;;5052880;28;20200;-84
2022/11/01 10:59:45;;;;;;;11.32;2.08;;;;;;;;;;5052328;28;20295;-84
2022/11/01 11:02:16;;;;;;;12.70;2.45;;;;;;;;;;5051111;28;20192;-84
2022/11/01 11:04:43;;;;;;;13.55;2.35;;;;;;;;;;5049894;28;20235;-84
2022/11/01 11:07:13;;;;;;;15.10;2.65;;;;;;;;;;5051387;28;20233;-84
2022/11/01 11:09:40;;;;;;;15.63;2.30;;;;;;;;;;5050974;28;20291;-83
2022/11/01 11:12:11;;;;;;;13.15;2.60;;;;;;;;;;5051851;28;20231;-84
2022/11/01 11:14:40;;;;;;;10.70;2.22;;;;;;;;;;5051860;28;20305;-82
2022/11/01 11:17:13;;;;;;;11.98;1.90;;;;;;;;;;5049891;28;20219;-83
2022/11/01 11:19:42;;;;;;;8.70;2.15;;;;;;;;;;5048404;28;20281;-84
2022/11/01 11:22:11;;;;;;;9.93;2.58;;;;;;;;;;5052047;28;20235;-83
2022/11/01 11:24:39;;;;;;;12.18;2.10;;;;;;;;;;5052639;28;20203;-85
2022/11/01 11:27:12;;;;;;;16.92;2.60;;;;;;;;;;5050224;28;20306;-84
2022/11/01 11:29:47;;;;;;;9.57;2.20;;;;;;;;;;5051843;28;20230;-84
2022/11/01 11:32:16;;;;;;;12.25;2.60;;;;;;;;;;5052098;28;20214;-84
2022/11/01 11:34:43;;;;;;;12.35;2.65;;;;;;;;;;5032269;28;21423;-84
2022/11/01 11:37:22;;;;;;;12.13;2.10;;;;;;;;;;5050710;28;20239;-84
2022/11/01 11:40:07;;;;;;;14.55;2.90;;;;;;;;;;5048774;28;20238;-82
2022/11/01 11:42:34;;;;;;;11.52;2.38;;;;;;;;;;5045462;28;20230;-85
2022/11/01 11:45:15;;;;;;;10.70;2.10;;;;;;;;;;5051406;28;20953;-85
2022/11/01 11:47:43;;;;;;;11.52;2.00;;;;;;;;;;5043001;28;20298;-85
2022/11/01 11:50:33;;;;;;;12.85;2.50;;;;;;;;;;5051219;28;20642;-84
2022/11/01 11:53:06;;;;;;;11.32;2.10;;;;;;;;;;5048763;28;20233;-84
2022/11/01 11:55:39;;;;;;;11.52;2.08;;;;;;;;;;5047117;28;20295;-84
2022/11/01 11:58:07;;;;;;;7.78;1.73;;;;;;;;;;5056303;28;20202;-86
2022/11/01 12:00:38;;;;;;;11.40;2.10;;;;;;;;;;5050920;28;20199;-84
2022/11/01 12:03:07;;;;;;;12.35;2.20;;;;;;;;;;5051638;28;20204;-84
2022/11/01 12:05:35;;;;;;;11.77;2.50;;;;;;;;;;5050758;28;20531;-84
2022/11/01 12:08:02;;;;;;;11.07;2.20;;;;;;;;;;5049697;28;20574;-84
2022/11/01 12:10:31;;;;;;;10.95;2.50;;;;;;;;;;5052411;28;20203;-83
2022/11/01 12:12:58;;;;;;;9.15;2.20;;;;;;;;;;5050670;28;20275;-85
2022/11/01 12:15:27;;;;;;;13.25;2.35;;;;;;;;;;5050185;28;20246;-84
2022/11/01 12:17:56;;;;;;;11.13;1.95;;;;;;;;;;5050111;28;20291;-83
2022/11/01 12:20:26;;;;;;;10.85;2.35;;;;;;;;;;5050283;28;20238;-84
2022/11/01 12:22:57;;;;;;;10.93;2.35;;;;;;;;;;5049311;28;20199;-84
2022/11/01 12:25:25;;;;;;;12.23;2.15;;;;;;;;;;5051076;28;20286;-85
2022/11/01 12:30:57;;;;;;;10.27;2.33;;;;;;;;;;5049134;28;20667;-85
2022/11/01 12:33:28;;;;;;;10.27;2.20;;;;;;;;;;5051068;28;20291;-83
2022/11/01 12:35:55;;;;;;;12.20;2.22;;;;;;;;;;5050855;28;20278;-84
2022/11/01 12:38:34;;;;;;;15.60;3.00;;;;;;;;;;5048865;28;20792;-84
2022/11/01 12:41:05;;;;;;;10.73;1.85;;;;;;;;;;5050602;28;20239;-85
2022/11/01 12:43:35;;;;;;;13.40;2.60;;;;;;;;;;5050760;28;20195;-84
2022/11/01 12:49:17;;;;;;;14.65;2.65;;;;;;;;;;4975531;28;20206;-84
2022/11/01 12:51:46;;;;;;;9.30;1.88;;;;;;;;;;4986486;28;20302;-85
2022/11/01 12:54:15;;;;;;;11.43;2.03;;;;;;;;;;4981673;28;20277;-84
2022/11/01 12:56:42;;;;;;;10.55;1.90;;;;;;;;;;4982692;28;20734;-84
2022/11/01 12:59:11;;;;;;;15.43;2.65;;;;;;;;;;4976239;28;20370;-85
2022/11/01 13:01:46;;;;;;;9.60;1.90;;;;;;;;;;4978748;28;20305;-85
2022/11/01 13:04:19;;;;;;;13.32;2.20;;;;;;;;;;4968030;28;20232;-85
2022/11/01 13:07:10;;;;;;;12.35;2.10;;;;;;;;;;4975969;28;20226;-85
2022/11/01 13:09:43;;;;;;;12.50;1.90;;;;;;;;;;4950210;28;20238;-84
2022/11/01 13:12:14;;;;;;;12.85;2.17;;;;;;;;;;4972901;28;20206;-84
2022/11/01 13:14:48;;;;;;;14.07;2.28;;;;;;;;;;4972094;28;20561;-85
2022/11/01 13:17:19;;;;;;;8.80;2.40;;;;;;;;;;4970467;28;20897;-83
2022/11/01 13:19:50;;;;;;;14.57;2.58;;;;;;;;;;4968748;28;20750;-84
2022/11/01 13:22:22;;;;;;;15.98;2.30;;;;;;;;;;4968229;28;20294;-83
2022/11/01 13:24:53;;;;;;;11.65;2.25;;;;;;;;;;5001569;28;20278;-84
2022/11/01 13:27:22;;;;;;;13.18;2.45;;;;;;;;;;5047686;28;20288;-84
2022/11/01 13:29:52;;;;;;;13.70;2.05;;;;;;;;;;5048552;28;20707;-84
2022/11/01 13:32:22;;;;;;;11.07;2.22;;;;;;;;;;5048454;28;20583;-85
2022/11/01 13:34:55;;;;;;;11.68;2.35;;;;;;;;;;5050010;28;20925;-84
2022/11/01 13:37:28;;;;;;;9.15;2.30;;;;;;;;;;5049224;28;20294;-84
2022/11/01 13:40:04;;;;;;;12.82;2.05;;;;;;;;;;5046666;28;20254;-84
2022/11/01 13:42:35;;;;;;;13.32;2.78;;;;;;;;;;5047534;28;20310;-84
2022/11/01 13:45:10;;;;;;;15.02;2.90;;;;;;;;;;5049359;28;20242;-84
2022/11/01 13:47:45;;;;;;;13.68;2.53;;;;;;;;;;5048497;28;20707;-85
2022/11/01 13:50:36;;;;;;;12.00;2.50;;;;;;;;;;5048853;28;20227;-83
2022/11/01 13:53:12;;;;;;;16.40;2.80;;;;;;;;;;5046110;28;20261;-84
2022/11/01 13:55:43;;;;;;;11.18;2.20;;;;;;;;;;5049268;28;20290;-84
2022/11/01 13:58:14;;;;;;;14.38;2.47;;;;;;;;;;5047019;28;20203;-83
2022/11/01 14:00:43;;;;;;;13.73;2.28;;;;;;;;;;5048287;28;20287;-83
2022/11/01 14:03:17;;;;;;;19.25;2.55;;;;;;;;;;5049494;28;20196;-85
2022/11/01 14:05:47;;;;;;;10.25;2.25;;;;;;;;;;5047862;28;20282;-84
2022/11/01 14:08:27;;;;;;;11.43;2.05;;;;;;;;;;5048245;28;20212;-85
2022/11/01 14:10:54;;;;;;;10.32;2.35;;;;;;;;;;5047527;28;20196;-84
2022/11/01 14:13:32;;;;;;;16.75;3.00;;;;;;;;;;5048060;28;20938;-85
2022/11/01 14:16:18;;;;;;;16.15;2.33;;;;;;;;;;5049197;28;20679;-84
2022/11/01 14:19:04;;;;;;;16.75;2.88;;;;;;;;;;5035029;28;20310;-83
2022/11/01 14:21:33;;;;;;;12.80;2.40;;;;;;;;;;5048390;28;20228;-84
2022/11/01 14:24:06;;;;;;;13.20;2.38;;;;;;;;;;5048382;28;20253;-83
2022/11/01 14:27:00;;;;;;;12.77;2.80;;;;;;;;;;5048176;28;20261;-84
2022/11/01 14:29:29;;;;;;;10.23;2.33;;;;;;;;;;4996376;28;20211;-84
2022/11/01 14:31:57;;;;;;;15.38;2.78;;;;;;;;;;5048568;28;20202;-75
2022/11/01 14:34:30;;;;;;;16.45;3.10;;;;;;;;;;5046911;28;20920;-75
2022/11/01 14:37:01;;;;;;;15.25;2.53;;;;;;;;;;5046187;28;20245;-76
2022/11/01 14:39:33;;;;;;;19.48;3.00;;;;;;;;;;5044737;28;20328;-75
2022/11/01 14:42:02;;;;;;;13.40;2.80;;;;;;;;;;5046761;28;20215;-76
2022/11/01 14:44:35;;;;;;;12.77;2.93;;;;;;;;;;5046085;28;20299;-75
2022/11/01 14:47:05;;;;;;;14.60;2.83;;;;;;;;;;5045619;28;20207;-76
2022/11/01 14:49:36;;;;;;;15.03;3.27;;;;;;;;;;5045135;28;21086;-75
2022/11/01 14:52:06;;;;;;;13.70;2.72;;;;;;;;;;5047143;28;20257;-76
2022/11/01 14:54:38;;;;;;;18.13;3.00;;;;;;;;;;5043345;28;20204;-84
2022/11/01 14:57:19;;;;;;;17.93;3.53;;;;;;;;;;5046260;28;20253;-84
2022/11/01 14:59:46;;;;;;;15.63;2.80;;;;;;;;;;5044537;28;20203;-84